Terminal Aerodrome Forecast
Issued by NWS

Home | Current Version | Previous Version | Text Only | Print | Product List | Glossary On
Versions: 1 2 3 4 5 6 7 8 9 10 11 12 13 14 15 16 17 18 19 20 21 22 23 24 25
000
FTUS45 KGGW 261100 RRA
TAFOLF
TAF
KOLF 261142Z 2612/2712 VRB05KT P6SM VCFG SCT011 BKN035
     FM262000 36007KT P6SM OVC070
     FM270400 VRB04KT P6SM VCSH OVC050=

USA.gov is the U.S. government's official web portal to all federal, state and local government web resources and services.